createdAt,value
2022-07-29T00:00:00.173Z,25.0
2022-07-29T00:05:01.457Z,25.0
2022-07-29T00:10:00.120Z,25.0
2022-07-29T00:15:00.120Z,25.0
2022-07-29T00:20:00.380Z,25.0
2022-07-29T00:25:01.081Z,25.0
2022-07-29T00:30:01.311Z,25.0
2022-07-29T00:35:00.085Z,25.0
2022-07-29T00:40:00.128Z,25.0
2022-07-29T00:45:00.107Z,25.0
2022-07-29T00:50:00.102Z,25.0
2022-07-29T00:55:02.669Z,25.0
2022-07-29T01:00:00.127Z,25.0
2022-07-29T01:05:00.111Z,25.0
2022-07-29T01:10:00.149Z,24.9
2022-07-29T01:15:00.069Z,24.9
2022-07-29T01:20:00.093Z,24.9
2022-07-29T01:25:00.101Z,24.8
2022-07-29T01:30:00.112Z,24.7
2022-07-29T01:35:00.079Z,24.6
2022-07-29T01:40:00.172Z,24.5
2022-07-29T01:45:00.101Z,24.4
2022-07-29T01:50:00.136Z,24.3
2022-07-29T01:55:00.118Z,24.2
2022-07-29T02:00:00.164Z,24.1
2022-07-29T02:05:00.188Z,24.1
2022-07-29T02:10:00.149Z,24.0
2022-07-29T02:15:01.075Z,24.0
2022-07-29T02:20:00.152Z,23.9
2022-07-29T02:25:00.159Z,23.8
2022-07-29T02:30:00.082Z,23.8
2022-07-29T02:35:00.108Z,23.7
2022-07-29T02:40:00.146Z,23.6
2022-07-29T02:45:01.214Z,23.6
2022-07-29T02:50:00.507Z,23.6
2022-07-29T02:55:00.113Z,23.5
2022-07-29T03:00:00.150Z,23.5
2022-07-29T03:05:00.182Z,23.4
2022-07-29T03:10:00.140Z,23.4
2022-07-29T03:15:00.087Z,23.4
2022-07-29T03:20:00.107Z,23.4
2022-07-29T03:25:00.110Z,23.4
2022-07-29T03:30:00.151Z,23.3
2022-07-29T03:35:00.079Z,23.3
2022-07-29T03:40:04.165Z,23.3
2022-07-29T03:45:00.091Z,23.2
2022-07-29T03:50:00.129Z,23.2
2022-07-29T03:55:00.085Z,23.2
2022-07-29T04:00:00.123Z,23.2
2022-07-29T04:05:00.083Z,23.1
2022-07-29T04:10:00.108Z,23.1
2022-07-29T04:15:00.116Z,23.1
2022-07-29T04:20:00.111Z,23.1
2022-07-29T04:25:03.640Z,23.0
2022-07-29T04:30:00.123Z,23.0
2022-07-29T04:35:00.089Z,23.0
2022-07-29T04:40:00.100Z,23.0
2022-07-29T04:45:01.212Z,23.0
2022-07-29T04:50:00.123Z,23.0
2022-07-29T04:55:00.104Z,23.0
2022-07-29T05:00:00.136Z,23.0
2022-07-29T05:05:00.104Z,23.0
2022-07-29T05:10:00.126Z,23.0
2022-07-29T05:15:00.127Z,23.0
2022-07-29T05:20:00.105Z,23.0
2022-07-29T05:25:04.364Z,23.0
2022-07-29T05:30:00.136Z,23.0
2022-07-29T05:35:00.082Z,23.0
2022-07-29T05:40:00.127Z,23.0
2022-07-29T05:45:00.118Z,23.0
2022-07-29T05:50:01.832Z,23.0
2022-07-29T05:55:00.091Z,23.0
2022-07-29T06:00:00.155Z,23.0
2022-07-29T06:05:00.207Z,23.0
2022-07-29T06:10:00.089Z,23.0
2022-07-29T06:15:00.111Z,23.0
2022-07-29T06:20:00.172Z,23.0
2022-07-29T06:25:00.082Z,23.0
2022-07-29T06:30:00.151Z,23.0
2022-07-29T06:35:24.728Z,23.0
2022-07-29T06:40:00.102Z,23.0
2022-07-29T06:45:00.113Z,23.1
2022-07-29T06:50:00.134Z,23.0
2022-07-29T06:55:00.099Z,23.1
2022-07-29T07:00:00.133Z,23.1
2022-07-29T07:05:00.079Z,23.1
2022-07-29T07:10:00.150Z,23.1
2022-07-29T07:15:00.106Z,23.1
2022-07-29T07:20:00.127Z,23.2
2022-07-29T07:25:01.212Z,23.2
2022-07-29T07:30:00.129Z,23.2
2022-07-29T07:35:00.084Z,23.2
2022-07-29T07:40:00.090Z,23.2
2022-07-29T07:45:12.871Z,23.2
2022-07-29T07:50:00.082Z,23.3
2022-07-29T07:55:00.071Z,23.3
2022-07-29T08:00:00.148Z,23.3
2022-07-29T08:05:00.070Z,23.4
2022-07-29T08:10:00.119Z,23.4
2022-07-29T08:15:00.117Z,23.5
2022-07-29T08:20:00.111Z,23.5
2022-07-29T08:25:00.091Z,23.5
2022-07-29T08:30:00.140Z,23.5
2022-07-29T08:35:00.074Z,23.5
2022-07-29T08:40:00.083Z,23.5
2022-07-29T08:45:01.212Z,23.6
2022-07-29T08:50:00.110Z,23.6
2022-07-29T08:55:00.082Z,23.6
2022-07-29T09:00:02.528Z,23.6
2022-07-29T09:05:00.120Z,23.7
2022-07-29T09:10:02.760Z,23.7
2022-07-29T09:15:00.115Z,23.7
2022-07-29T09:20:00.143Z,23.8
2022-07-29T09:25:00.092Z,23.8
2022-07-29T09:30:00.297Z,23.8
2022-07-29T09:35:00.100Z,23.9
2022-07-29T09:40:00.127Z,23.9
2022-07-29T09:45:00.100Z,23.9
2022-07-29T09:50:00.265Z,23.9
2022-07-29T09:55:00.060Z,24.0
2022-07-29T10:00:00.072Z,24.0
2022-07-29T10:05:00.113Z,24.0
2022-07-29T10:10:00.955Z,24.0
2022-07-29T10:15:00.094Z,24.0
2022-07-29T10:20:00.142Z,24.0
2022-07-29T10:25:00.083Z,24.1
2022-07-29T10:30:00.115Z,24.1
2022-07-29T10:35:00.109Z,24.2
2022-07-29T10:40:00.124Z,24.2
2022-07-29T10:45:00.087Z,24.2
2022-07-29T10:50:01.247Z,24.2
2022-07-29T10:55:00.073Z,24.2
2022-07-29T11:00:00.110Z,24.3
2022-07-29T11:05:00.125Z,24.2
2022-07-29T11:10:00.105Z,24.3
2022-07-29T11:15:00.301Z,24.3
2022-07-29T11:20:00.115Z,24.3
2022-07-29T11:25:00.083Z,24.4
2022-07-29T11:30:01.191Z,24.4
2022-07-29T11:35:00.105Z,24.4
2022-07-29T11:40:02.106Z,24.4
2022-07-29T11:45:04.259Z,24.4
2022-07-29T11:50:00.125Z,24.4
2022-07-29T11:55:00.681Z,24.4
2022-07-29T12:00:04.550Z,24.5
2022-07-29T12:05:00.112Z,24.5
2022-07-29T12:10:00.153Z,24.5
2022-07-29T12:15:00.090Z,24.5
2022-07-29T12:20:00.177Z,24.5
2022-07-29T12:25:11.762Z,24.5
2022-07-29T12:30:00.129Z,24.5
2022-07-29T12:35:00.095Z,24.6
2022-07-29T12:40:00.163Z,24.6
2022-07-29T12:45:00.071Z,24.6
2022-07-29T12:50:00.122Z,24.6
2022-07-29T12:55:00.106Z,24.7
2022-07-29T13:00:00.140Z,24.7
2022-07-29T13:05:00.090Z,24.7
2022-07-29T13:10:00.145Z,24.7
2022-07-29T13:15:00.086Z,24.7
2022-07-29T13:20:00.117Z,24.7
2022-07-29T13:25:00.108Z,24.7
2022-07-29T13:30:00.144Z,24.7
2022-07-29T13:35:00.095Z,24.7
2022-07-29T13:40:00.209Z,24.7
2022-07-29T13:45:00.101Z,24.8
2022-07-29T13:50:00.093Z,24.8
2022-07-29T13:55:00.113Z,24.8
2022-07-29T14:00:00.116Z,24.8
2022-07-29T14:05:01.935Z,24.8
2022-07-29T14:10:00.135Z,24.8
2022-07-29T14:15:00.087Z,24.8
2022-07-29T14:20:00.143Z,24.9
2022-07-29T14:25:01.509Z,25.0
2022-07-29T14:30:00.113Z,25.0
2022-07-29T14:35:00.098Z,25.0
2022-07-29T14:40:00.151Z,25.0
2022-07-29T14:45:00.085Z,25.0
2022-07-29T14:50:00.146Z,25.0
2022-07-29T14:55:00.105Z,25.1
2022-07-29T15:00:00.136Z,25.1
2022-07-29T15:05:00.109Z,25.1
2022-07-29T15:10:00.150Z,25.1
2022-07-29T15:15:00.091Z,25.1
2022-07-29T15:20:00.106Z,25.1
2022-07-29T15:25:00.123Z,25.1
2022-07-29T15:30:01.398Z,25.1
2022-07-29T15:35:00.080Z,25.2
2022-07-29T15:40:00.360Z,25.3
2022-07-29T15:45:00.107Z,25.3
2022-07-29T15:50:00.084Z,25.3
2022-07-29T15:55:00.108Z,25.3
2022-07-29T16:00:00.112Z,25.3
2022-07-29T16:05:00.137Z,25.4
2022-07-29T16:10:00.144Z,25.4
2022-07-29T16:15:00.177Z,25.4
2022-07-29T16:20:01.264Z,25.4
2022-07-29T16:25:00.121Z,25.4
2022-07-29T16:30:00.192Z,25.4
2022-07-29T16:35:00.313Z,25.4
2022-07-29T16:40:00.287Z,25.4
2022-07-29T16:45:00.096Z,25.5
2022-07-29T16:50:00.111Z,25.5
2022-07-29T16:55:00.306Z,25.5
2022-07-29T17:00:00.317Z,25.5
2022-07-29T17:05:00.075Z,25.4
2022-07-29T17:10:03.673Z,25.5
2022-07-29T17:15:00.094Z,25.4
2022-07-29T17:20:00.121Z,25.5
2022-07-29T17:25:00.102Z,25.5
2022-07-29T17:30:00.123Z,25.5
2022-07-29T17:35:01.394Z,25.4
2022-07-29T17:40:00.597Z,25.5
2022-07-29T17:45:00.081Z,25.5
2022-07-29T17:50:00.124Z,25.4
2022-07-29T17:55:00.175Z,25.5
2022-07-29T18:00:00.125Z,25.5
2022-07-29T18:05:00.105Z,25.5
2022-07-29T18:10:00.819Z,25.5
2022-07-29T18:15:00.122Z,25.5
2022-07-29T18:20:00.135Z,25.5
2022-07-29T18:25:00.108Z,25.5
2022-07-29T18:30:03.510Z,25.5
2022-07-29T18:35:00.079Z,25.5
2022-07-29T18:40:00.135Z,25.5
2022-07-29T18:45:00.079Z,25.5
2022-07-29T18:50:00.115Z,25.5
2022-07-29T18:55:00.108Z,25.5
2022-07-29T19:00:00.145Z,25.6
2022-07-29T19:05:00.076Z,25.6
2022-07-29T19:10:00.157Z,25.6
2022-07-29T19:15:00.114Z,25.7
2022-07-29T19:20:00.130Z,25.6
2022-07-29T19:25:00.113Z,25.7
2022-07-29T19:30:00.147Z,25.7
2022-07-29T19:35:00.102Z,25.7
2022-07-29T19:40:00.151Z,25.7
2022-07-29T19:45:00.123Z,25.7
2022-07-29T19:50:00.130Z,25.7
2022-07-29T19:55:02.978Z,25.7
2022-07-29T20:00:01.257Z,25.7
2022-07-29T20:05:00.156Z,25.7
2022-07-29T20:10:00.141Z,25.7
2022-07-29T20:15:00.125Z,25.7
2022-07-29T20:20:00.111Z,25.7
2022-07-29T20:25:00.127Z,25.6
2022-07-29T20:30:00.142Z,25.6
2022-07-29T20:35:00.097Z,25.6
2022-07-29T20:40:00.159Z,25.6
2022-07-29T20:45:00.097Z,25.6
2022-07-29T20:50:00.167Z,25.6
2022-07-29T20:55:00.131Z,25.6
2022-07-29T21:00:00.155Z,25.5
2022-07-29T21:05:00.101Z,25.5
2022-07-29T21:10:00.178Z,25.5
2022-07-29T21:15:00.104Z,25.5
2022-07-29T21:20:00.113Z,25.5
2022-07-29T21:25:00.122Z,25.5
2022-07-29T21:30:01.151Z,25.5
2022-07-29T21:35:00.113Z,25.5
2022-07-29T21:40:00.139Z,25.5
2022-07-29T21:45:00.106Z,25.5
2022-07-29T21:50:00.120Z,25.5
2022-07-29T21:55:00.119Z,25.5
2022-07-29T22:00:02.837Z,25.5
2022-07-29T22:05:00.069Z,25.4
2022-07-29T22:10:00.147Z,25.4
2022-07-29T22:15:00.100Z,25.5
2022-07-29T22:20:00.123Z,25.4
2022-07-29T22:25:00.118Z,25.4
2022-07-29T22:30:00.133Z,25.4
2022-07-29T22:35:00.101Z,25.4
2022-07-29T22:40:00.151Z,25.4
2022-07-29T22:45:00.093Z,25.4
2022-07-29T22:50:00.144Z,25.4
2022-07-29T22:55:00.119Z,25.4
2022-07-29T23:00:00.131Z,25.4
2022-07-29T23:05:00.969Z,25.4
2022-07-29T23:10:00.126Z,25.3
2022-07-29T23:15:00.103Z,25.4
2022-07-29T23:20:00.114Z,25.4
2022-07-29T23:25:00.110Z,25.3
2022-07-29T23:30:00.123Z,25.4
2022-07-29T23:35:00.098Z,25.4
2022-07-29T23:40:03.823Z,25.3
2022-07-29T23:45:00.074Z,25.3
2022-07-29T23:50:00.135Z,25.3
2022-07-29T23:55:35.941Z,25.3
